createdAt,value
2018-01-21T00:51:24.666Z,7.90
2018-01-21T00:53:52.993Z,8.93
2018-01-21T00:56:21.309Z,7.65
2018-01-21T00:58:49.658Z,7.40
2018-01-21T01:01:17.990Z,7.62
2018-01-21T01:03:46.321Z,8.02
2018-01-21T01:06:14.650Z,7.10
2018-01-21T01:08:42.991Z,7.22
2018-01-21T01:11:11.307Z,7.93
2018-01-21T01:13:39.655Z,8.18
2018-01-21T01:16:07.974Z,8.20
2018-01-21T01:18:36.317Z,8.30
2018-01-21T01:21:04.634Z,7.20
2018-01-21T01:23:32.970Z,9.25
2018-01-21T01:26:01.286Z,9.00
2018-01-21T01:28:29.618Z,8.55
2018-01-21T01:30:57.935Z,7.97
2018-01-21T01:33:26.273Z,8.00
2018-01-21T01:35:54.587Z,8.43
2018-01-21T01:38:22.913Z,7.62
2018-01-21T01:40:51.225Z,8.55
2018-01-21T01:43:19.565Z,7.78
2018-01-21T01:45:47.882Z,8.75
2018-01-21T01:48:16.271Z,8.38
2018-01-21T01:50:44.562Z,9.30
2018-01-21T01:53:12.898Z,8.68
2018-01-21T01:55:41.210Z,7.97
2018-01-21T01:58:09.554Z,8.30
2018-01-21T02:00:37.875Z,8.63
2018-01-21T02:03:06.215Z,8.10
2018-01-21T02:05:34.519Z,8.95
2018-01-21T02:08:02.849Z,9.18
2018-01-21T02:10:31.165Z,8.63
2018-01-21T02:12:59.502Z,8.73
2018-01-21T02:15:27.833Z,8.60
2018-01-21T02:17:56.154Z,8.80
2018-01-21T02:20:24.460Z,7.50
2018-01-21T02:22:52.797Z,7.12
2018-01-21T02:25:21.109Z,8.23
2018-01-21T02:27:49.442Z,8.25
2018-01-21T02:30:17.754Z,8.70
2018-01-21T02:32:46.086Z,9.68
2018-01-21T02:35:14.390Z,8.38
2018-01-21T02:37:42.701Z,9.02
2018-01-21T02:40:11.037Z,8.30
2018-01-21T02:42:39.354Z,9.13
2018-01-21T02:45:07.694Z,9.30
2018-01-21T02:47:36.002Z,9.18
2018-01-21T02:50:04.330Z,9.07
2018-01-21T02:52:32.642Z,7.93
2018-01-21T02:55:00.982Z,9.27
2018-01-21T02:57:29.297Z,8.90
2018-01-21T02:59:57.630Z,7.90
2018-01-21T03:02:25.942Z,9.10
2018-01-21T03:04:54.281Z,8.43
2018-01-21T03:07:22.598Z,7.97
2018-01-21T03:09:50.941Z,8.05
2018-01-21T03:12:19.254Z,8.02
2018-01-21T03:14:47.607Z,9.43
2018-01-21T03:17:15.946Z,8.45
2018-01-21T03:19:44.289Z,8.95
2018-01-21T03:22:12.611Z,8.63
2018-01-21T03:24:40.951Z,8.38
2018-01-21T03:27:09.257Z,8.82
2018-01-21T03:29:37.589Z,9.25
2018-01-21T03:32:05.915Z,9.80
2018-01-21T03:34:34.254Z,11.00
2018-01-21T03:37:02.581Z,11.05
2018-01-21T03:39:30.922Z,10.10
2018-01-21T03:41:59.237Z,11.00
2018-01-21T03:44:27.572Z,9.85
2018-01-21T03:46:55.885Z,8.25
2018-01-21T03:49:24.226Z,9.70
2018-01-21T03:51:52.558Z,10.25
2018-01-21T03:54:20.905Z,10.70
2018-01-21T03:56:49.233Z,12.75
2018-01-21T03:59:17.585Z,11.35
2018-01-21T04:01:45.905Z,13.90
2018-01-21T04:04:14.260Z,10.95
2018-01-21T04:06:42.589Z,13.75
2018-01-21T04:09:10.986Z,14.18
2018-01-21T04:11:39.329Z,13.15
2018-01-21T04:14:07.693Z,13.65
2018-01-21T04:16:36.085Z,15.27
2018-01-21T04:19:04.434Z,13.27
2018-01-21T04:21:32.757Z,13.15
2018-01-21T04:24:01.114Z,12.30
2018-01-21T04:26:29.493Z,11.32
2018-01-21T04:28:57.837Z,11.60
2018-01-21T04:31:26.249Z,9.90
2018-01-21T04:33:54.593Z,10.13
2018-01-21T04:36:22.918Z,9.70
2018-01-21T04:38:51.233Z,8.63
2018-01-21T04:41:19.578Z,10.05
2018-01-21T04:43:47.930Z,8.02
2018-01-21T04:46:16.274Z,8.63
2018-01-21T04:48:44.686Z,8.98
2018-01-21T04:51:13.025Z,8.82
2018-01-21T04:53:41.345Z,9.32
2018-01-21T04:56:09.713Z,9.50
2018-01-21T04:58:38.085Z,10.35
2018-01-21T05:01:06.434Z,10.48
2018-01-21T05:03:34.825Z,8.82
2018-01-21T05:06:03.226Z,9.30
2018-01-21T05:08:31.601Z,9.10
2018-01-21T05:10:59.977Z,11.68
2018-01-21T05:13:28.292Z,9.70
2018-01-21T05:15:56.638Z,10.80
2018-01-21T05:18:24.964Z,10.35
2018-01-21T05:20:53.313Z,12.45
2018-01-21T05:23:21.633Z,10.43
2018-01-21T05:25:49.981Z,10.93
2018-01-21T05:28:18.414Z,12.07
2018-01-21T05:30:46.789Z,12.25
2018-01-21T05:33:15.121Z,12.27
2018-01-21T05:35:43.469Z,13.60
2018-01-21T05:38:11.813Z,12.13
2018-01-21T05:40:40.152Z,13.23
2018-01-21T05:43:10.009Z,13.53
2018-01-21T05:45:38.364Z,14.50
2018-01-21T05:48:06.685Z,13.75
2018-01-21T05:50:35.965Z,15.63
2018-01-21T05:53:04.341Z,14.00
2018-01-21T05:55:33.261Z,13.87
2018-01-21T05:58:01.606Z,14.30
2018-01-21T06:00:29.985Z,14.33
2018-01-21T06:02:58.357Z,12.57
2018-01-21T06:05:26.790Z,15.37
2018-01-21T06:07:55.113Z,15.20
2018-01-21T06:10:23.469Z,14.43
2018-01-21T06:12:51.797Z,15.13
2018-01-21T06:15:20.145Z,14.60
2018-01-21T06:17:48.517Z,15.33
2018-01-21T06:20:16.865Z,14.40
2018-01-21T06:22:45.202Z,15.17
2018-01-21T06:25:13.557Z,16.50
2018-01-21T06:27:41.885Z,13.87
2018-01-21T06:30:10.237Z,14.65
2018-01-21T06:32:38.578Z,14.53
2018-01-21T06:35:06.933Z,15.10
2018-01-21T06:37:35.262Z,16.93
2018-01-21T06:40:04.414Z,13.80
2018-01-21T06:42:32.745Z,16.17
2018-01-21T06:45:01.069Z,15.53
2018-01-21T06:47:29.428Z,16.08
2018-01-21T06:49:57.758Z,15.20
2018-01-21T06:52:26.118Z,15.20
2018-01-21T06:54:54.445Z,16.13
2018-01-21T06:57:22.797Z,14.33
2018-01-21T06:59:51.127Z,13.80
2018-01-21T07:02:19.477Z,14.75
2018-01-21T07:04:47.815Z,13.73
2018-01-21T07:07:16.171Z,15.40
2018-01-21T07:09:44.505Z,16.30
2018-01-21T07:12:12.850Z,13.03
2018-01-21T07:14:41.190Z,16.43
2018-01-21T07:17:09.596Z,17.20
2018-01-21T07:19:37.931Z,16.47
2018-01-21T07:22:06.277Z,15.37
2018-01-21T07:24:34.611Z,15.30
2018-01-21T07:27:02.970Z,14.87
2018-01-21T07:29:31.318Z,15.32
2018-01-21T07:31:59.674Z,15.20
2018-01-21T07:34:28.007Z,14.63
2018-01-21T07:36:56.362Z,14.27
2018-01-21T07:39:24.697Z,15.00
2018-01-21T07:41:53.058Z,13.53
2018-01-21T07:44:21.382Z,14.33
2018-01-21T07:46:49.735Z,13.83
2018-01-21T07:49:18.071Z,14.85
2018-01-21T07:51:46.423Z,13.43
2018-01-21T07:54:14.759Z,13.30
2018-01-21T07:56:43.114Z,13.50
2018-01-21T07:59:11.453Z,15.00
2018-01-21T08:01:39.805Z,15.13
2018-01-21T08:04:08.147Z,13.80
2018-01-21T08:06:36.505Z,13.75
2018-01-21T08:09:04.833Z,13.37
2018-01-21T08:11:33.191Z,15.68
2018-01-21T08:14:01.518Z,13.80
2018-01-21T08:16:29.885Z,15.35
2018-01-21T08:18:58.227Z,15.70
2018-01-21T08:21:26.579Z,14.13
2018-01-21T08:23:54.938Z,13.77
2018-01-21T08:26:23.289Z,16.43
2018-01-21T08:28:51.686Z,14.77
2018-01-21T08:31:20.038Z,14.93
2018-01-21T08:33:53.938Z,15.03
2018-01-21T08:36:27.949Z,15.63
2018-01-21T08:39:01.994Z,16.60
2018-01-21T08:44:36.021Z,15.73
2018-01-21T08:47:04.370Z,14.20
2018-01-21T08:49:32.706Z,13.40
2018-01-21T08:52:01.058Z,14.30
2018-01-21T08:54:29.389Z,13.20
2018-01-21T08:56:57.809Z,12.83
2018-01-21T08:59:26.144Z,15.10
2018-01-21T09:01:54.498Z,13.73
2018-01-21T09:04:22.836Z,14.25
2018-01-21T09:06:51.266Z,13.27
2018-01-21T09:09:19.601Z,16.20
2018-01-21T09:11:48.310Z,17.07
2018-01-21T09:14:18.129Z,14.30
2018-01-21T09:16:48.163Z,14.20
2018-01-21T09:19:16.469Z,13.30
2018-01-21T09:21:44.821Z,12.30
2018-01-21T09:24:13.950Z,13.97
2018-01-21T09:26:45.220Z,11.52
2018-01-21T09:29:13.569Z,12.00
2018-01-21T09:31:41.925Z,11.55
2018-01-21T09:34:10.276Z,12.47
2018-01-21T09:36:38.601Z,16.23
2018-01-21T09:39:06.981Z,15.13
2018-01-21T09:41:35.312Z,13.87
2018-01-21T09:44:03.729Z,13.20
2018-01-21T09:46:32.106Z,12.93
2018-01-21T09:49:00.503Z,10.80
2018-01-21T09:51:29.066Z,9.90
2018-01-21T09:53:57.417Z,11.85
2018-01-21T09:56:25.741Z,10.30
2018-01-21T09:58:54.085Z,9.47
2018-01-21T10:01:22.541Z,7.35
2018-01-21T10:03:50.953Z,9.07
2018-01-21T10:06:19.273Z,8.02
2018-01-21T10:08:47.620Z,9.60
2018-01-21T10:11:15.961Z,8.18
2018-01-21T10:13:44.357Z,8.80
2018-01-21T10:16:12.708Z,7.63
2018-01-21T10:18:41.279Z,8.77
2018-01-21T10:21:09.585Z,9.30
2018-01-21T10:23:37.977Z,8.87
2018-01-21T10:26:07.276Z,8.70
2018-01-21T10:28:35.669Z,8.18
2018-01-21T10:31:03.994Z,8.88
2018-01-21T10:33:32.403Z,9.43
2018-01-21T10:36:02.530Z,9.38
2018-01-21T10:38:30.869Z,7.90
2018-01-21T10:40:59.224Z,7.33
2018-01-21T10:43:27.742Z,7.90
2018-01-21T10:45:56.062Z,8.07
2018-01-21T10:48:24.408Z,6.83
2018-01-21T10:50:52.786Z,9.00
2018-01-21T10:53:21.106Z,8.97
2018-01-21T10:55:50.457Z,7.87
2018-01-21T10:58:18.805Z,7.03
2018-01-21T11:00:52.742Z,8.50
2018-01-21T11:03:21.121Z,7.67
2018-01-21T11:05:49.446Z,7.60
2018-01-21T11:08:17.790Z,8.37
2018-01-21T11:10:46.114Z,8.63
2018-01-21T11:13:14.453Z,7.75
2018-01-21T11:15:43.681Z,7.62
2018-01-21T11:18:12.025Z,26.77
2018-01-21T11:20:41.298Z,25.02
2018-01-21T11:23:09.645Z,15.00
2018-01-21T11:25:38.049Z,13.40
2018-01-21T11:28:06.398Z,14.47
2018-01-21T11:30:34.725Z,10.93
2018-01-21T11:33:03.079Z,10.07
2018-01-21T11:35:31.406Z,9.55
2018-01-21T11:37:59.748Z,10.07
2018-01-21T11:40:28.778Z,9.90
2018-01-21T11:42:57.120Z,9.40
2018-01-21T11:45:25.480Z,11.53
2018-01-21T11:47:53.986Z,11.68
2018-01-21T11:50:22.485Z,11.80
2018-01-21T11:52:50.818Z,9.98
2018-01-21T11:55:19.243Z,10.20
2018-01-21T11:57:47.621Z,12.20
2018-01-21T12:00:15.996Z,11.67
2018-01-21T12:02:44.421Z,14.80
2018-01-21T12:05:12.766Z,14.73
2018-01-21T12:07:41.173Z,11.43
2018-01-21T12:10:09.570Z,12.10
2018-01-21T12:12:37.894Z,11.85
2018-01-21T12:15:06.366Z,11.18
2018-01-21T12:17:34.698Z,9.90
2018-01-21T12:20:03.042Z,9.90
2018-01-21T12:22:31.494Z,10.03
2018-01-21T12:24:59.848Z,12.40
2018-01-21T12:27:28.190Z,12.85
2018-01-21T12:29:56.573Z,12.00
2018-01-21T12:32:24.935Z,9.63
2018-01-21T12:34:53.333Z,9.50
2018-01-21T12:37:21.849Z,9.13
2018-01-21T12:39:50.961Z,10.43
2018-01-21T12:42:19.297Z,9.50
2018-01-21T12:44:47.657Z,10.57
2018-01-21T12:47:15.991Z,10.65
2018-01-21T12:49:44.407Z,9.37
2018-01-21T12:52:12.790Z,10.00
2018-01-21T12:54:41.134Z,9.88
2018-01-21T12:57:09.549Z,10.30
2018-01-21T12:59:38.589Z,10.02
2018-01-21T13:02:07.009Z,11.23
2018-01-21T13:04:35.389Z,10.23
2018-01-21T13:07:03.714Z,11.30
2018-01-21T13:09:32.061Z,12.73
2018-01-21T13:12:00.389Z,11.60
2018-01-21T13:14:28.792Z,12.57
2018-01-21T13:16:57.124Z,11.03
2018-01-21T13:19:25.533Z,12.13
2018-01-21T13:21:53.861Z,14.47
2018-01-21T13:24:22.197Z,10.60
2018-01-21T13:26:50.545Z,11.30
2018-01-21T13:29:18.953Z,11.75
2018-01-21T13:31:47.329Z,10.00
2018-01-21T13:34:15.665Z,11.97
2018-01-21T13:36:44.030Z,11.70
2018-01-21T13:39:13.029Z,16.10
2018-01-21T13:41:41.381Z,16.43
2018-01-21T13:44:09.712Z,12.30
2018-01-21T13:46:38.088Z,13.40
2018-01-21T13:49:06.486Z,13.67
2018-01-21T13:51:34.861Z,16.03
2018-01-21T13:54:03.237Z,13.97
2018-01-21T13:56:31.585Z,15.90
2018-01-21T13:58:59.918Z,25.03
2018-01-21T14:01:28.281Z,27.23
2018-01-21T14:03:56.609Z,20.20
2018-01-21T14:06:24.934Z,21.13
2018-01-21T14:08:53.290Z,17.37
2018-01-21T14:11:21.609Z,18.67
2018-01-21T14:13:49.962Z,14.50
2018-01-21T14:16:18.325Z,9.57
2018-01-21T14:18:47.522Z,7.78
2018-01-21T14:21:15.840Z,7.00
2018-01-21T14:23:44.181Z,6.30
2018-01-21T14:26:12.505Z,5.95
2018-01-21T14:28:40.934Z,5.50
2018-01-21T14:31:09.305Z,6.12
2018-01-21T14:33:37.648Z,6.82
2018-01-21T14:36:06.062Z,5.93
2018-01-21T14:38:34.407Z,6.07
2018-01-21T14:41:02.798Z,6.07
2018-01-21T14:43:31.143Z,5.70
2018-01-21T14:45:59.573Z,5.63
2018-01-21T14:48:27.929Z,5.87
2018-01-21T14:50:56.249Z,6.07
2018-01-21T14:53:24.623Z,6.57
2018-01-21T14:55:52.962Z,6.18
2018-01-21T14:58:21.789Z,6.85
2018-01-21T15:00:50.256Z,6.07
2018-01-21T15:03:18.561Z,7.87
2018-01-21T15:05:47.913Z,7.70
2018-01-21T15:08:16.245Z,5.67
2018-01-21T15:10:44.692Z,5.33
2018-01-21T15:13:13.050Z,5.40
2018-01-21T15:15:45.704Z,5.75
2018-01-21T15:18:18.657Z,5.37
2018-01-21T15:20:46.989Z,5.47
2018-01-21T15:23:15.361Z,4.43
2018-01-21T15:25:43.722Z,4.90
2018-01-21T15:28:12.045Z,6.35
2018-01-21T15:30:40.502Z,5.70
2018-01-21T15:33:08.873Z,6.40
2018-01-21T15:35:37.307Z,5.43
2018-01-21T15:38:05.675Z,5.40
2018-01-21T15:40:33.994Z,6.57
2018-01-21T15:43:02.364Z,5.75
2018-01-21T15:45:30.858Z,5.87
2018-01-21T15:47:59.226Z,5.20
2018-01-21T15:50:27.553Z,5.60
2018-01-21T15:52:55.897Z,5.27
2018-01-21T15:55:24.225Z,5.37
2018-01-21T15:57:52.577Z,5.03
2018-01-21T16:00:20.897Z,5.28
2018-01-21T16:02:49.246Z,5.13
2018-01-21T16:05:17.560Z,4.40
2018-01-21T16:07:45.902Z,5.30
2018-01-21T16:10:14.230Z,5.10
2018-01-21T16:12:42.595Z,5.25
2018-01-21T16:15:10.913Z,5.67
2018-01-21T16:17:39.251Z,4.97
2018-01-21T16:20:07.574Z,5.43
2018-01-21T16:22:35.960Z,5.57
2018-01-21T16:25:04.246Z,5.72
2018-01-21T16:27:32.626Z,6.17
2018-01-21T16:30:00.949Z,5.33
2018-01-21T16:32:29.397Z,6.55
2018-01-21T16:34:57.719Z,5.93
2018-01-21T16:37:37.793Z,6.43
2018-01-21T16:40:06.118Z,5.50
2018-01-21T16:42:34.462Z,6.07
2018-01-21T16:45:02.793Z,6.37
2018-01-21T16:47:31.170Z,6.10
2018-01-21T16:50:00.377Z,6.22
2018-01-21T16:52:28.729Z,5.43
2018-01-21T16:54:57.062Z,6.07
2018-01-21T16:57:25.383Z,6.90
2018-01-21T16:59:53.738Z,5.80
2018-01-21T17:02:22.226Z,6.50
2018-01-21T17:04:50.569Z,6.15
2018-01-21T17:07:18.890Z,4.30
2018-01-21T17:09:47.232Z,5.20
2018-01-21T17:12:15.562Z,6.20
2018-01-21T17:14:43.967Z,5.57
2018-01-21T17:17:12.304Z,4.83
2018-01-21T17:19:40.642Z,7.43
2018-01-21T17:22:09.260Z,5.00
2018-01-21T17:24:37.633Z,5.83
2018-01-21T17:27:05.959Z,5.40
2018-01-21T17:29:34.980Z,6.50
2018-01-21T17:32:03.378Z,8.18
2018-01-21T17:34:31.733Z,7.10
2018-01-21T17:37:00.146Z,6.97
2018-01-21T17:39:28.509Z,6.03
2018-01-21T17:41:56.903Z,4.62
2018-01-21T17:44:25.262Z,4.87
2018-01-21T17:46:53.598Z,4.00
2018-01-21T17:49:22.509Z,4.75
2018-01-21T17:51:50.846Z,4.37
2018-01-21T17:54:19.246Z,6.20
2018-01-21T17:56:47.587Z,4.90
2018-01-21T17:59:15.911Z,5.83
2018-01-21T18:01:44.242Z,5.80
2018-01-21T18:04:12.578Z,5.60
2018-01-21T18:06:40.898Z,6.33
2018-01-21T18:09:09.361Z,5.87
2018-01-21T18:11:37.685Z,5.25
2018-01-21T18:14:06.037Z,6.67
2018-01-21T18:16:34.357Z,7.60
2018-01-21T18:19:02.729Z,7.50
2018-01-21T18:21:31.245Z,8.63
2018-01-21T18:24:00.494Z,6.20
2018-01-21T18:26:28.867Z,6.22
2018-01-21T18:28:58.448Z,6.18
2018-01-21T18:31:30.326Z,6.30
2018-01-21T18:33:59.912Z,7.37
2018-01-21T18:36:29.736Z,8.60
2018-01-21T18:38:58.213Z,8.95
2018-01-21T18:41:26.569Z,9.83
2018-01-21T18:43:54.910Z,9.57
2018-01-21T18:46:23.250Z,10.77
2018-01-21T18:48:52.546Z,11.68
2018-01-21T18:51:20.921Z,9.50
2018-01-21T18:53:49.277Z,7.53
2018-01-21T18:56:17.621Z,7.33
2018-01-21T18:58:45.981Z,6.90
2018-01-21T19:01:14.333Z,7.47
2018-01-21T19:03:42.785Z,7.72
2018-01-21T19:06:11.170Z,7.20
2018-01-21T19:08:40.320Z,6.37
2018-01-21T19:11:09.931Z,5.85
2018-01-21T19:13:38.542Z,6.97
2018-01-21T19:16:06.953Z,6.73
2018-01-21T19:18:35.255Z,7.10
2018-01-21T19:21:03.598Z,7.40
2018-01-21T19:23:32.053Z,6.43
2018-01-21T19:26:01.394Z,6.73
2018-01-21T19:28:29.736Z,5.80
2018-01-21T19:30:58.097Z,7.12
2018-01-21T19:33:26.435Z,6.07
2018-01-21T19:35:55.770Z,6.10
2018-01-21T19:38:29.550Z,5.70
2018-01-21T19:44:15.634Z,7.10
2018-01-21T19:46:44.143Z,6.43
2018-01-21T19:49:12.507Z,5.87
2018-01-21T19:51:40.868Z,7.57
2018-01-21T19:54:09.177Z,6.50
2018-01-21T19:56:37.751Z,6.10
2018-01-21T19:59:06.057Z,6.32
2018-01-21T20:01:34.446Z,5.77
2018-01-21T20:04:03.537Z,6.75
2018-01-21T20:06:31.880Z,5.83
2018-01-21T20:09:00.277Z,6.43
2018-01-21T20:11:28.587Z,6.97
2018-01-21T20:13:57.082Z,7.47
2018-01-21T20:16:25.427Z,8.80
2018-01-21T20:18:53.805Z,7.97
2018-01-21T20:21:22.817Z,7.72
2018-01-21T20:23:51.150Z,7.47
2018-01-21T20:26:19.513Z,8.30
2018-01-21T20:28:47.837Z,8.60
2018-01-21T20:31:16.310Z,9.35
2018-01-21T20:33:44.633Z,8.57
2018-01-21T20:36:12.996Z,9.02
2018-01-21T20:38:41.385Z,9.10
2018-01-21T20:41:09.807Z,10.27
2018-01-21T20:43:38.166Z,10.00
2018-01-21T20:46:06.571Z,9.80
2018-01-21T20:48:34.854Z,9.00
2018-01-21T20:51:08.933Z,10.37
2018-01-21T20:53:42.996Z,10.60
2018-01-21T20:56:11.382Z,9.40
2018-01-21T20:58:39.702Z,10.80
2018-01-21T21:01:08.198Z,11.40
2018-01-21T21:03:36.584Z,10.97
2018-01-21T21:06:04.925Z,10.60
2018-01-21T21:08:33.530Z,8.80
2018-01-21T21:11:01.874Z,10.55
2018-01-21T21:13:31.485Z,10.40
2018-01-21T21:15:59.830Z,12.50
2018-01-21T21:18:28.168Z,9.27
2018-01-21T21:20:56.558Z,10.68
2018-01-21T21:23:24.998Z,10.50
2018-01-21T21:25:53.935Z,11.67
2018-01-21T21:28:22.925Z,9.70
2018-01-21T21:30:51.330Z,8.33
2018-01-21T21:33:19.678Z,10.20
2018-01-21T21:35:48.029Z,10.40
2018-01-21T21:38:16.381Z,11.13
2018-01-21T21:40:45.786Z,8.48
2018-01-21T21:43:14.134Z,7.93
2018-01-21T21:45:42.507Z,8.32
2018-01-21T21:48:10.826Z,9.00
2018-01-21T21:50:39.346Z,8.37
2018-01-21T21:53:07.685Z,8.03
2018-01-21T21:55:36.085Z,8.20
2018-01-21T21:58:04.454Z,9.37
2018-01-21T22:00:33.105Z,8.60
2018-01-21T22:03:01.441Z,8.32
2018-01-21T22:05:29.785Z,9.07
2018-01-21T22:07:58.109Z,9.15
2018-01-21T22:10:26.883Z,9.80
2018-01-21T22:12:55.537Z,8.87
2018-01-21T22:15:23.885Z,9.20
2018-01-21T22:17:52.233Z,8.57
2018-01-21T22:20:20.553Z,9.20
2018-01-21T22:22:48.901Z,11.30
2018-01-21T22:25:17.231Z,10.07
2018-01-21T22:27:45.577Z,10.53
2018-01-21T22:30:13.901Z,9.63
2018-01-21T22:32:42.246Z,9.83
2018-01-21T22:35:10.569Z,10.20
2018-01-21T22:37:38.923Z,10.00
2018-01-21T22:40:07.256Z,11.25
2018-01-21T22:42:35.589Z,9.93
2018-01-21T22:45:03.913Z,11.27
2018-01-21T22:47:32.266Z,10.40
2018-01-21T22:50:00.594Z,10.20
2018-01-21T22:52:28.945Z,9.63
2018-01-21T22:54:57.261Z,9.82
2018-01-21T22:57:25.606Z,11.93
2018-01-21T22:59:53.949Z,10.60
2018-01-21T23:02:22.278Z,11.30
2018-01-21T23:04:50.601Z,11.10
2018-01-21T23:07:18.954Z,12.50
2018-01-21T23:09:47.277Z,11.18
2018-01-21T23:12:15.622Z,10.82
2018-01-21T23:14:43.949Z,11.90
2018-01-21T23:17:12.293Z,11.07
2018-01-21T23:19:40.617Z,10.77
2018-01-21T23:22:08.965Z,10.70
2018-01-21T23:24:37.289Z,10.43
2018-01-21T23:27:05.638Z,11.27
2018-01-21T23:29:33.962Z,11.12
2018-01-21T23:32:02.306Z,10.65
2018-01-21T23:34:30.634Z,10.50
2018-01-21T23:36:58.979Z,10.13
2018-01-21T23:39:27.301Z,10.80
2018-01-21T23:41:55.644Z,10.70
2018-01-21T23:44:23.969Z,10.65
2018-01-21T23:46:52.312Z,10.80
2018-01-21T23:49:20.637Z,9.48
2018-01-21T23:51:48.986Z,11.38
2018-01-21T23:54:17.306Z,11.73
2018-01-21T23:56:45.653Z,10.93
2018-01-21T23:59:13.973Z,10.68
